createdAt,value
2018-09-12T00:01:01.184Z,2.83
2018-09-12T00:03:30.030Z,2.70
2018-09-12T00:05:58.734Z,3.00
2018-09-12T00:08:27.492Z,2.63
2018-09-12T00:10:56.145Z,2.90
2018-09-12T00:13:24.874Z,2.60
2018-09-12T00:15:53.641Z,2.17
2018-09-12T00:18:22.513Z,2.17
2018-09-12T00:20:51.200Z,2.20
2018-09-12T00:23:19.871Z,2.43
2018-09-12T00:25:48.770Z,2.47
2018-09-12T00:28:17.620Z,2.20
2018-09-12T00:30:46.454Z,2.50
2018-09-12T00:33:15.267Z,2.53
2018-09-12T00:35:43.967Z,2.33
2018-09-12T00:38:13.131Z,2.13
2018-09-12T00:40:41.996Z,2.70
2018-09-12T00:43:10.867Z,2.00
2018-09-12T00:45:39.707Z,2.43
2018-09-12T00:48:09.096Z,2.27
2018-09-12T00:50:37.804Z,2.60
2018-09-12T00:53:06.556Z,2.43
2018-09-12T00:55:35.246Z,2.27
2018-09-12T00:58:04.185Z,2.20
2018-09-12T01:00:32.930Z,2.60
2018-09-12T01:03:01.748Z,2.33
2018-09-12T01:05:30.887Z,2.17
2018-09-12T01:07:59.669Z,2.00
2018-09-12T01:10:28.325Z,1.80
2018-09-12T01:12:56.975Z,2.20
2018-09-12T01:15:26.788Z,2.20
2018-09-12T01:17:55.717Z,2.30
2018-09-12T01:20:24.357Z,1.80
2018-09-12T01:22:53.284Z,2.00
2018-09-12T01:25:21.993Z,2.00
2018-09-12T01:27:57.662Z,2.20
2018-09-12T01:30:26.518Z,2.70
2018-09-12T01:32:56.837Z,2.53
2018-09-12T01:35:25.698Z,2.17
2018-09-12T01:37:54.447Z,2.50
2018-09-12T01:40:23.220Z,2.50
2018-09-12T01:42:52.085Z,2.23
2018-09-12T01:45:20.961Z,2.50
2018-09-12T01:47:50.231Z,2.20
2018-09-12T01:50:19.307Z,2.30
2018-09-12T01:52:48.412Z,2.40
2018-09-12T01:55:17.208Z,2.20
2018-09-12T01:57:46.028Z,2.13
2018-09-12T02:00:19.135Z,2.30
2018-09-12T02:02:49.196Z,1.87
2018-09-12T02:05:17.947Z,2.00
2018-09-12T02:07:46.643Z,2.10
2018-09-12T02:10:15.617Z,2.20
2018-09-12T02:12:44.387Z,2.10
2018-09-12T02:15:13.348Z,2.33
2018-09-12T02:17:42.085Z,2.10
2018-09-12T02:20:10.993Z,2.10
2018-09-12T02:22:39.787Z,2.50
2018-09-12T02:25:08.483Z,2.23
2018-09-12T02:27:37.422Z,2.60
2018-09-12T02:30:07.287Z,2.23
2018-09-12T02:32:36.053Z,2.20
2018-09-12T02:35:39.740Z,2.17
2018-09-12T02:38:08.808Z,1.80
2018-09-12T02:40:38.630Z,2.20
2018-09-12T02:43:07.289Z,2.20
2018-09-12T02:45:35.959Z,2.40
2018-09-12T02:48:04.916Z,2.80
2018-09-12T02:50:33.585Z,2.40
2018-09-12T02:53:02.471Z,2.00
2018-09-12T02:55:34.233Z,1.90
2018-09-12T02:58:02.913Z,2.40
2018-09-12T03:00:31.714Z,2.40
2018-09-12T03:03:00.355Z,2.70
2018-09-12T03:05:29.142Z,2.70
2018-09-12T03:07:57.959Z,2.63
2018-09-12T03:10:26.814Z,2.70
2018-09-12T03:12:55.537Z,2.60
2018-09-12T03:15:24.337Z,2.93
2018-09-12T03:17:52.962Z,2.70
2018-09-12T03:20:21.953Z,2.60
2018-09-12T03:22:50.762Z,2.40
2018-09-12T03:25:19.653Z,2.67
2018-09-12T03:27:48.397Z,3.33
2018-09-12T03:30:17.268Z,2.90
2018-09-12T03:32:46.054Z,2.40
2018-09-12T03:35:14.801Z,2.97
2018-09-12T03:37:43.597Z,3.33
2018-09-12T03:40:12.342Z,2.90
2018-09-12T03:42:41.074Z,3.77
2018-09-12T03:45:09.720Z,3.53
2018-09-12T03:47:38.444Z,3.87
2018-09-12T03:50:07.612Z,3.40
2018-09-12T03:52:36.363Z,3.33
2018-09-12T03:55:05.416Z,3.70
2018-09-12T03:57:34.227Z,3.50
2018-09-12T04:00:03.951Z,3.30
2018-09-12T04:02:32.797Z,3.50
2018-09-12T04:05:01.542Z,3.43
2018-09-12T04:07:30.467Z,3.53
2018-09-12T04:09:59.218Z,3.00
2018-09-12T04:12:28.131Z,3.47
2018-09-12T04:14:56.794Z,3.10
2018-09-12T04:17:30.076Z,3.80
2018-09-12T04:19:58.772Z,3.30
2018-09-12T04:22:27.644Z,3.10
2018-09-12T04:24:56.931Z,2.83
2018-09-12T04:27:25.864Z,3.00
2018-09-12T04:29:55.342Z,3.17
2018-09-12T04:32:24.405Z,3.20
2018-09-12T04:34:53.295Z,3.07
2018-09-12T04:37:22.035Z,3.23
2018-09-12T04:39:50.917Z,3.67
2018-09-12T04:42:19.603Z,3.33
2018-09-12T04:44:48.684Z,3.50
2018-09-12T04:47:17.715Z,3.30
2018-09-12T04:49:46.872Z,3.70
2018-09-12T04:52:15.708Z,3.93
2018-09-12T04:54:44.432Z,3.90
2018-09-12T04:57:15.691Z,4.03
2018-09-12T04:59:44.590Z,3.90
2018-09-12T05:02:13.228Z,3.90
2018-09-12T05:04:42.055Z,3.90
2018-09-12T05:07:11.144Z,4.20
2018-09-12T05:09:39.973Z,4.00
2018-09-12T05:12:08.717Z,4.47
2018-09-12T05:14:37.560Z,4.50
2018-09-12T05:17:06.750Z,4.83
2018-09-12T05:19:35.408Z,4.50
2018-09-12T05:22:04.478Z,4.50
2018-09-12T05:24:33.321Z,4.43
2018-09-12T05:27:02.227Z,4.60
2018-09-12T05:29:31.013Z,4.43
2018-09-12T05:31:59.853Z,4.63
2018-09-12T05:34:28.658Z,4.83
2018-09-12T05:36:57.413Z,4.73
2018-09-12T05:39:26.026Z,4.63
2018-09-12T05:41:54.725Z,4.63
2018-09-12T05:44:23.401Z,4.97
2018-09-12T05:46:52.097Z,4.70
2018-09-12T05:49:27.537Z,4.63
2018-09-12T05:51:56.329Z,4.80
2018-09-12T05:54:25.103Z,3.83
2018-09-12T05:56:53.786Z,3.67
2018-09-12T05:59:22.741Z,3.43
2018-09-12T06:01:51.655Z,3.17
2018-09-12T06:04:20.483Z,3.17
2018-09-12T06:06:49.223Z,3.17
2018-09-12T06:09:20.824Z,3.13
2018-09-12T06:11:49.735Z,2.80
2018-09-12T06:14:18.335Z,2.87
2018-09-12T06:16:47.108Z,3.33
2018-09-12T06:19:16.011Z,3.20
2018-09-12T06:21:44.896Z,3.03
2018-09-12T06:24:13.613Z,2.90
2018-09-12T06:26:42.262Z,3.23
2018-09-12T06:29:11.016Z,3.60
2018-09-12T06:31:39.605Z,2.93
2018-09-12T06:34:08.458Z,2.97
2018-09-12T06:36:37.181Z,3.70
2018-09-12T06:39:08.892Z,3.30
2018-09-12T06:41:37.663Z,3.07
2018-09-12T06:44:06.473Z,3.10
2018-09-12T06:46:35.648Z,3.10
2018-09-12T06:49:04.363Z,2.70
2018-09-12T06:51:33.129Z,2.90
2018-09-12T06:54:02.180Z,3.13
2018-09-12T06:56:31.029Z,3.20
2018-09-12T06:58:59.870Z,3.10
2018-09-12T07:01:28.583Z,2.63
2018-09-12T07:03:57.398Z,2.70
2018-09-12T07:06:26.347Z,2.93
2018-09-12T07:08:55.057Z,2.50
2018-09-12T07:11:23.862Z,2.47
2018-09-12T07:13:52.495Z,2.50
2018-09-12T07:16:21.152Z,2.50
2018-09-12T07:18:50.052Z,2.30
2018-09-12T07:21:18.775Z,2.20
2018-09-12T07:23:47.677Z,2.50
2018-09-12T07:26:16.308Z,2.30
2018-09-12T07:28:45.193Z,2.63
2018-09-12T07:31:13.880Z,2.57
2018-09-12T07:33:42.811Z,2.27
2018-09-12T07:36:11.446Z,2.10
2018-09-12T07:38:40.137Z,2.47
2018-09-12T07:41:08.854Z,2.00
2018-09-12T07:43:37.705Z,2.00
2018-09-12T07:46:06.441Z,2.00
2018-09-12T07:48:41.858Z,1.80
2018-09-12T07:51:10.611Z,2.20
2018-09-12T07:53:39.300Z,1.90
2018-09-12T07:56:08.727Z,1.80
2018-09-12T07:58:37.668Z,1.90
2018-09-12T08:01:06.894Z,1.90
2018-09-12T08:03:35.518Z,2.17
2018-09-12T08:06:04.342Z,1.87
2018-09-12T08:08:33.191Z,1.60
2018-09-12T08:11:02.054Z,1.90
2018-09-12T08:13:30.974Z,1.90
2018-09-12T08:16:00.008Z,1.80
2018-09-12T08:18:28.883Z,1.70
2018-09-12T08:20:57.608Z,1.60
2018-09-12T08:23:26.280Z,1.60
2018-09-12T08:25:55.130Z,1.70
2018-09-12T08:28:24.155Z,1.70
2018-09-12T08:30:53.070Z,1.60
2018-09-12T08:33:21.991Z,1.40
2018-09-12T08:35:50.816Z,1.50
2018-09-12T08:38:20.738Z,1.50
2018-09-12T08:40:49.799Z,1.90
2018-09-12T08:43:18.497Z,1.40
2018-09-12T08:45:47.416Z,1.07
2018-09-12T08:48:16.299Z,1.50
2018-09-12T08:50:49.252Z,1.30
2018-09-12T08:53:19.035Z,1.30
2018-09-12T08:55:49.042Z,1.50
2018-09-12T08:58:18.116Z,1.20
2018-09-12T09:00:47.001Z,1.20
2018-09-12T09:03:16.192Z,1.13
2018-09-12T09:05:45.176Z,1.00
2018-09-12T09:08:13.990Z,1.10
2018-09-12T09:10:42.759Z,1.10
2018-09-12T09:13:11.680Z,3.60
2018-09-12T09:15:40.646Z,1.50
2018-09-12T09:18:09.622Z,1.10
2018-09-12T09:20:38.335Z,1.27
2018-09-12T09:23:07.318Z,1.77
2018-09-12T09:25:36.054Z,1.40
2018-09-12T09:28:04.981Z,1.07
2018-09-12T09:30:34.444Z,1.10
2018-09-12T09:33:03.319Z,1.03
2018-09-12T09:35:32.509Z,0.93
2018-09-12T09:38:01.193Z,1.00
2018-09-12T09:40:30.083Z,1.43
2018-09-12T09:42:58.979Z,1.30
2018-09-12T09:45:27.800Z,1.30
2018-09-12T09:47:56.567Z,1.67
2018-09-12T09:50:25.509Z,1.37
2018-09-12T09:52:54.548Z,1.43
2018-09-12T09:55:23.271Z,1.60
2018-09-12T09:57:52.138Z,1.50
2018-09-12T10:00:26.526Z,1.13
2018-09-12T10:03:00.289Z,1.83
2018-09-12T10:05:34.412Z,1.60
2018-09-12T10:08:08.353Z,1.80
2018-09-12T10:10:37.073Z,1.40
2018-09-12T10:13:05.816Z,1.50
2018-09-12T10:15:34.453Z,1.80
2018-09-12T10:18:03.295Z,1.80
2018-09-12T10:20:32.061Z,1.70
2018-09-12T10:23:00.814Z,1.30
2018-09-12T10:25:29.498Z,1.40
2018-09-12T10:27:58.372Z,1.57
2018-09-12T10:30:27.597Z,1.43
2018-09-12T10:32:56.483Z,1.30
2018-09-12T10:35:25.187Z,1.23
2018-09-12T10:37:53.944Z,1.30
2018-09-12T10:40:22.854Z,1.47
2018-09-12T10:42:52.977Z,1.40
2018-09-12T10:45:21.829Z,1.47
2018-09-12T10:47:50.740Z,1.30
2018-09-12T10:50:19.454Z,1.47
2018-09-12T10:52:48.165Z,1.27
2018-09-12T10:55:17.203Z,1.50
2018-09-12T10:57:46.019Z,1.40
2018-09-12T11:00:15.252Z,1.40
2018-09-12T11:02:44.301Z,1.40
2018-09-12T11:05:13.275Z,1.30
2018-09-12T11:07:42.105Z,1.30
2018-09-12T11:10:10.747Z,1.40
2018-09-12T11:12:46.245Z,1.20
2018-09-12T11:15:14.990Z,1.30
2018-09-12T11:17:43.831Z,1.50
2018-09-12T11:20:12.615Z,1.20
2018-09-12T11:22:41.508Z,1.20
2018-09-12T11:25:10.101Z,1.40
2018-09-12T11:27:38.871Z,1.20
2018-09-12T11:30:07.638Z,1.20
2018-09-12T11:32:36.705Z,1.10
2018-09-12T11:35:05.491Z,1.10
2018-09-12T11:37:34.173Z,1.30
2018-09-12T11:40:02.868Z,1.40
2018-09-12T11:42:31.488Z,1.37
2018-09-12T11:45:00.139Z,1.37
2018-09-12T11:47:28.744Z,1.00
2018-09-12T11:50:00.740Z,1.20
2018-09-12T11:52:30.337Z,1.30
2018-09-12T11:54:59.199Z,1.40
2018-09-12T11:57:27.929Z,1.60
2018-09-12T11:59:56.802Z,1.27
2018-09-12T12:02:25.625Z,1.50
2018-09-12T12:04:54.507Z,1.30
2018-09-12T12:07:23.341Z,1.43
2018-09-12T12:09:52.082Z,1.53
2018-09-12T12:12:21.207Z,1.50
2018-09-12T12:14:50.336Z,1.40
2018-09-12T12:17:19.078Z,1.33
2018-09-12T12:19:47.767Z,1.50
2018-09-12T12:22:16.962Z,1.37
2018-09-12T12:24:45.627Z,1.27
2018-09-12T12:27:14.401Z,1.33
2018-09-12T12:29:43.281Z,1.43
2018-09-12T12:32:12.147Z,1.50
2018-09-12T12:34:41.315Z,1.60
2018-09-12T12:37:10.114Z,1.43
2018-09-12T12:39:38.852Z,2.03
2018-09-12T12:42:07.611Z,1.67
2018-09-12T12:44:36.294Z,1.90
2018-09-12T12:47:05.105Z,1.97
2018-09-12T12:49:33.994Z,1.60
2018-09-12T12:52:03.553Z,1.53
2018-09-12T12:54:32.469Z,1.40
2018-09-12T12:57:01.518Z,2.00
2018-09-12T12:59:30.220Z,2.00
2018-09-12T13:01:59.072Z,1.60
2018-09-12T13:04:27.701Z,1.47
2018-09-12T13:06:56.416Z,1.50
2018-09-12T13:09:25.069Z,1.37
2018-09-12T13:11:54.013Z,1.43
2018-09-12T13:14:22.786Z,1.70
2018-09-12T13:16:51.535Z,1.60
2018-09-12T13:19:20.272Z,1.50
2018-09-12T13:21:49.204Z,1.40
2018-09-12T13:24:18.246Z,1.73
2018-09-12T13:26:47.176Z,1.70
2018-09-12T13:29:16.138Z,1.43
2018-09-12T13:31:45.025Z,1.50
2018-09-12T13:34:13.735Z,1.10
2018-09-12T13:36:42.502Z,1.13
2018-09-12T13:39:14.739Z,1.03
2018-09-12T13:41:43.501Z,1.13
2018-09-12T13:44:12.552Z,1.23
2018-09-12T13:46:41.530Z,1.30
2018-09-12T13:49:10.439Z,1.20
2018-09-12T13:51:39.314Z,1.10
2018-09-12T13:54:08.145Z,1.40
2018-09-12T13:56:36.919Z,1.30
2018-09-12T13:59:05.907Z,1.47
2018-09-12T14:01:34.785Z,1.40
2018-09-12T14:04:03.695Z,1.47
2018-09-12T14:06:32.605Z,1.73
2018-09-12T14:09:01.271Z,1.60
2018-09-12T14:11:30.064Z,2.10
2018-09-12T14:13:58.842Z,1.70
2018-09-12T14:16:28.058Z,1.93
2018-09-12T14:18:56.645Z,1.97
2018-09-12T14:21:25.234Z,2.20
2018-09-12T14:23:54.514Z,1.93
2018-09-12T14:26:23.272Z,2.10
2018-09-12T14:28:52.110Z,1.30
2018-09-12T14:31:21.771Z,1.90
2018-09-12T14:33:51.144Z,1.70
2018-09-12T14:36:20.264Z,2.00
2018-09-12T14:38:50.115Z,1.33
2018-09-12T14:41:19.298Z,1.63
2018-09-12T14:43:48.463Z,1.87
2018-09-12T14:46:17.489Z,1.70
2018-09-12T14:48:46.569Z,1.60
2018-09-12T14:51:15.552Z,1.50
2018-09-12T14:53:44.428Z,1.80
2018-09-12T14:56:14.456Z,1.90
2018-09-12T14:58:43.330Z,1.50
2018-09-12T15:01:12.397Z,2.07
2018-09-12T15:03:41.322Z,1.70
2018-09-12T15:06:10.789Z,2.00
2018-09-12T15:08:39.713Z,1.83
2018-09-12T15:11:08.599Z,1.40
2018-09-12T15:13:38.560Z,1.13
2018-09-12T15:16:07.404Z,1.13
2018-09-12T15:18:36.705Z,1.60
2018-09-12T15:21:05.768Z,1.60
2018-09-12T15:23:34.506Z,1.40
2018-09-12T15:26:03.826Z,1.50
2018-09-12T15:28:33.652Z,1.77
2018-09-12T15:31:02.473Z,2.00
2018-09-12T15:33:31.280Z,1.67
2018-09-12T15:36:00.180Z,1.50
2018-09-12T15:38:29.504Z,1.50
2018-09-12T15:40:59.200Z,1.60
2018-09-12T15:43:28.971Z,1.40
2018-09-12T15:45:57.674Z,1.60
2018-09-12T15:48:26.584Z,1.83
2018-09-12T15:50:55.321Z,2.10
2018-09-12T15:53:25.868Z,2.00
2018-09-12T15:55:54.731Z,1.67
2018-09-12T15:58:23.512Z,1.70
2018-09-12T16:00:53.867Z,1.50
2018-09-12T16:03:22.733Z,1.87
2018-09-12T16:05:51.884Z,2.07
2018-09-12T16:08:20.871Z,1.60
2018-09-12T16:10:49.591Z,1.60
2018-09-12T16:13:18.406Z,2.07
2018-09-12T16:15:47.224Z,2.30
2018-09-12T16:18:18.237Z,2.40
2018-09-12T16:20:46.956Z,2.33
2018-09-12T16:23:16.402Z,3.23
2018-09-12T16:25:46.352Z,1.97
2018-09-12T16:28:15.539Z,1.70
2018-09-12T16:30:44.436Z,2.10
2018-09-12T16:33:14.310Z,1.53
2018-09-12T16:35:43.202Z,2.23
2018-09-12T16:38:12.525Z,1.50
2018-09-12T16:40:41.533Z,1.50
2018-09-12T16:43:10.336Z,1.60
2018-09-12T16:45:39.326Z,1.67
2018-09-12T16:48:08.504Z,1.70
2018-09-12T16:50:37.540Z,1.70
2018-09-12T16:53:07.191Z,1.60
2018-09-12T16:55:36.184Z,1.83
2018-09-12T16:58:05.221Z,1.70
2018-09-12T17:00:34.381Z,1.50
2018-09-12T17:03:03.423Z,1.60
2018-09-12T17:05:32.314Z,1.83
2018-09-12T17:08:01.279Z,1.60
2018-09-12T17:10:30.411Z,1.90
2018-09-12T17:13:04.604Z,1.57
2018-09-12T17:15:34.021Z,1.53
2018-09-12T17:18:04.090Z,1.60
2018-09-12T17:20:32.828Z,1.50
2018-09-12T17:23:01.798Z,1.77
2018-09-12T17:25:32.949Z,1.70
2018-09-12T17:28:02.676Z,2.10
2018-09-12T17:30:31.862Z,2.17
2018-09-12T17:33:01.475Z,1.60
2018-09-12T17:35:30.389Z,1.83
2018-09-12T17:37:59.288Z,1.40
2018-09-12T17:40:28.838Z,1.50
2018-09-12T17:42:57.845Z,1.70
2018-09-12T17:45:26.709Z,1.80
2018-09-12T17:47:55.611Z,1.80
2018-09-12T17:50:26.238Z,1.57
2018-09-12T17:52:55.679Z,2.00
2018-09-12T17:55:26.628Z,1.80
2018-09-12T17:57:55.472Z,2.07
2018-09-12T18:00:24.631Z,1.90
2018-09-12T18:02:53.571Z,2.20
2018-09-12T18:05:22.475Z,2.17
2018-09-12T18:07:51.359Z,1.90
2018-09-12T18:10:21.160Z,1.73
2018-09-12T18:12:50.005Z,1.80
2018-09-12T18:15:18.798Z,1.70
2018-09-12T18:17:47.715Z,1.90
2018-09-12T18:20:16.755Z,1.57
2018-09-12T18:22:46.285Z,2.20
2018-09-12T18:25:16.366Z,1.90
2018-09-12T18:27:45.115Z,1.90
2018-09-12T18:30:14.675Z,1.80
2018-09-12T18:32:43.566Z,2.10
2018-09-12T18:35:12.562Z,2.07
2018-09-12T18:37:41.843Z,2.37
2018-09-12T18:40:10.813Z,2.17
2018-09-12T18:42:40.624Z,2.50
2018-09-12T18:45:09.714Z,2.40
2018-09-12T18:47:39.328Z,2.40
2018-09-12T18:50:08.890Z,1.80
2018-09-12T18:52:37.525Z,1.87
2018-09-12T18:55:06.285Z,2.20
2018-09-12T18:57:35.055Z,2.10
2018-09-12T19:00:04.992Z,1.70
2018-09-12T19:02:33.816Z,1.80
2018-09-12T19:05:02.850Z,2.00
2018-09-12T19:07:31.664Z,1.50
2018-09-12T19:10:00.683Z,1.87
2018-09-12T19:12:32.503Z,1.70
2018-09-12T19:15:01.807Z,1.50
2018-09-12T19:17:30.883Z,1.87
2018-09-12T19:20:00.055Z,1.50
2018-09-12T19:22:29.501Z,1.40
2018-09-12T19:25:04.891Z,1.40
2018-09-12T19:27:33.863Z,1.63
2018-09-12T19:30:02.955Z,1.83
2018-09-12T19:32:31.715Z,1.47
2018-09-12T19:35:00.645Z,1.57
2018-09-12T19:37:32.202Z,1.50
2018-09-12T19:40:01.241Z,1.30
2018-09-12T19:42:31.443Z,1.23
2018-09-12T19:45:00.848Z,1.20
2018-09-12T19:47:29.806Z,1.43
2018-09-12T19:49:58.806Z,1.20
2018-09-12T19:52:27.501Z,1.20
2018-09-12T19:54:56.253Z,1.67
2018-09-12T19:57:25.073Z,1.40
2018-09-12T19:59:54.277Z,1.40
2018-09-12T20:02:27.198Z,1.60
2018-09-12T20:04:56.294Z,1.67
2018-09-12T20:07:25.112Z,1.40
2018-09-12T20:09:53.842Z,1.37
2018-09-12T20:12:23.426Z,1.53
2018-09-12T20:14:52.828Z,1.60
2018-09-12T20:17:21.654Z,1.63
2018-09-12T20:19:51.014Z,1.40
2018-09-12T20:22:20.929Z,1.43
2018-09-12T20:24:49.710Z,1.70
2018-09-12T20:27:18.403Z,1.60
2018-09-12T20:29:47.654Z,1.50
2018-09-12T20:32:16.630Z,1.50
2018-09-12T20:34:45.267Z,1.50
2018-09-12T20:37:14.726Z,1.67
2018-09-12T20:39:43.842Z,1.43
2018-09-12T20:42:12.694Z,1.70
2018-09-12T20:44:41.636Z,1.60
2018-09-12T20:47:11.307Z,1.80
2018-09-12T20:49:40.188Z,1.40
2018-09-12T20:52:09.541Z,1.47
2018-09-12T20:54:38.240Z,1.17
2018-09-12T20:57:07.144Z,1.57
2018-09-12T20:59:35.991Z,1.30
2018-09-12T21:02:04.763Z,1.40
2018-09-12T21:04:33.497Z,1.40
2018-09-12T21:07:02.664Z,1.20
2018-09-12T21:09:31.454Z,1.40
2018-09-12T21:12:00.140Z,1.63
2018-09-12T21:14:29.035Z,1.63
2018-09-12T21:16:57.765Z,1.27
2018-09-12T21:19:26.483Z,1.40
2018-09-12T21:21:55.208Z,1.40
2018-09-12T21:24:23.981Z,1.50
2018-09-12T21:26:52.808Z,1.37
2018-09-12T21:29:21.663Z,1.40
2018-09-12T21:31:50.514Z,1.43
2018-09-12T21:34:19.408Z,1.63
2018-09-12T21:36:48.109Z,1.70
2018-09-12T21:39:16.934Z,1.40
2018-09-12T21:41:45.688Z,1.30
2018-09-12T21:44:14.550Z,1.70
2018-09-12T21:46:43.216Z,1.57
2018-09-12T21:49:11.837Z,1.40
2018-09-12T21:51:40.800Z,1.40
2018-09-12T21:54:09.489Z,1.20
2018-09-12T21:56:38.139Z,1.90
2018-09-12T21:59:06.996Z,1.07
2018-09-12T22:01:35.603Z,1.40
2018-09-12T22:04:04.629Z,1.53
2018-09-12T22:06:33.449Z,1.57
2018-09-12T22:09:03.474Z,1.30
2018-09-12T22:11:32.397Z,1.03
2018-09-12T22:14:01.217Z,1.27
2018-09-12T22:16:30.088Z,1.40
2018-09-12T22:18:58.983Z,1.30
2018-09-12T22:21:27.924Z,1.10
2018-09-12T22:23:56.745Z,1.23
2018-09-12T22:26:25.480Z,1.40
2018-09-12T22:28:54.375Z,1.20
2018-09-12T22:31:22.990Z,1.23
2018-09-12T22:33:52.175Z,1.13
2018-09-12T22:36:20.971Z,1.30
2018-09-12T22:38:49.971Z,1.30
2018-09-12T22:41:18.816Z,1.40
2018-09-12T22:43:47.500Z,1.40
2018-09-12T22:46:16.359Z,1.10
2018-09-12T22:48:45.397Z,1.20
2018-09-12T22:51:14.076Z,1.30
2018-09-12T22:53:43.090Z,1.37
2018-09-12T22:56:11.899Z,1.40
2018-09-12T22:58:40.630Z,1.30
2018-09-12T23:01:09.281Z,1.23
2018-09-12T23:03:37.956Z,1.20
2018-09-12T23:06:06.946Z,1.40
2018-09-12T23:08:36.115Z,1.50
2018-09-12T23:11:04.820Z,1.37
2018-09-12T23:13:33.512Z,1.30
2018-09-12T23:16:02.256Z,1.17
2018-09-12T23:18:31.296Z,1.20
2018-09-12T23:20:59.987Z,1.30
2018-09-12T23:23:28.771Z,1.13
2018-09-12T23:25:57.527Z,1.67
2018-09-12T23:28:26.343Z,1.10
2018-09-12T23:30:55.586Z,1.43
2018-09-12T23:33:24.501Z,1.37
2018-09-12T23:35:53.440Z,1.27
2018-09-12T23:38:22.559Z,1.73
2018-09-12T23:40:51.367Z,1.30
2018-09-12T23:43:20.042Z,1.40
2018-09-12T23:45:48.930Z,1.60
2018-09-12T23:48:17.940Z,1.30
2018-09-12T23:50:47.008Z,1.30
2018-09-12T23:53:15.988Z,1.53
2018-09-12T23:55:44.776Z,1.40
2018-09-12T23:58:13.566Z,1.47
